Carrigaline, Ireland
Current Conditions -  °F | °C
As of 7:00 AM on Saturday 25 Oct 2014 (Local Time) from EICK Reporting Station
Broken Clouds Broken Clouds  
Wind Chill: 50°   Ceiling: 4000
Heat Index: 50°   Visibility: 6mi
Dew Point: 48°   Wind: 10mph
Humidity: 94%   Direction: 230°SW
Pressure: 29.91"   Gusts: NA
Location:  51.81°N, 8.39°W
Report Text: EICK 250700Z 23009KT 9999 FEW015 FEW018CB BKN040 10/09 Q1013 NOSIG
Loading
Personal Weather Stations






























Interactive Weather Map New forecast layout! Learn more

10-Day Weather Forecast

Advertisements
Track Severe Weather on mobile